地図

経路データ

SID SEASON NUMBER BASIN SUBBASIN NAME ISO_TIME NATURE LAT LON WMO_WIND WMO_PRES WMO_AGENCY TRACK_TYPE DIST2LAND LANDFALL IFLAG USA_AGENCY USA_ATCF_ID USA_LAT USA_LON USA_RECORD USA_STATUS USA_WIND USA_PRES USA_SSHS USA_R34_NE USA_R34_SE USA_R34_SW USA_R34_NW USA_R50_NE USA_R50_SE USA_R50_SW USA_R50_NW USA_R64_NE USA_R64_SE USA_R64_SW USA_R64_NW USA_POCI USA_ROCI USA_RMW USA_EYE TOKYO_LAT TOKYO_LON TOKYO_GRADE TOKYO_WIND TOKYO_PRES TOKYO_R50_DIR TOKYO_R50_LONG TOKYO_R50_SHORT TOKYO_R30_DIR TOKYO_R30_LONG TOKYO_R30_SHORT TOKYO_LAND CMA_LAT CMA_LON CMA_CAT CMA_WIND CMA_PRES HKO_LAT HKO_LON HKO_CAT HKO_WIND HKO_PRES NEWDELHI_LAT NEWDELHI_LON NEWDELHI_GRADE NEWDELHI_WIND NEWDELHI_PRES NEWDELHI_CI NEWDELHI_DP NEWDELHI_POCI REUNION_LAT REUNION_LON REUNION_TYPE REUNION_WIND REUNION_PRES REUNION_TNUM REUNION_CI REUNION_RMW REUNION_R34_NE REUNION_R34_SE REUNION_R34_SW REUNION_R34_NW REUNION_R50_NE REUNION_R50_SE REUNION_R50_SW REUNION_R50_NW REUNION_R64_NE REUNION_R64_SE REUNION_R64_SW REUNION_R64_NW BOM_LAT BOM_LON BOM_TYPE BOM_WIND BOM_PRES BOM_TNUM BOM_CI BOM_RMW BOM_R34_NE BOM_R34_SE BOM_R34_SW BOM_R34_NW BOM_R50_NE BOM_R50_SE BOM_R50_SW BOM_R50_NW BOM_R64_NE BOM_R64_SE BOM_R64_SW BOM_R64_NW BOM_ROCI BOM_POCI BOM_EYE BOM_POS_METHOD BOM_PRES_METHOD NADI_LAT NADI_LON NADI_CAT NADI_WIND NADI_PRES WELLINGTON_LAT WELLINGTON_LON WELLINGTON_WIND WELLINGTON_PRES DS824_LAT DS824_LON DS824_STAGE DS824_WIND DS824_PRES TD9636_LAT TD9636_LON TD9636_STAGE TD9636_WIND TD9636_PRES TD9635_LAT TD9635_LON TD9635_WIND TD9635_PRES TD9635_ROCI NEUMANN_LAT NEUMANN_LON NEUMANN_CLASS NEUMANN_WIND NEUMANN_PRES MLC_LAT MLC_LON MLC_CLASS MLC_WIND MLC_PRES USA_GUST BOM_GUST BOM_GUST_PER REUNION_GUST REUNION_GUST_PER USA_SEAHGT USA_SEARAD_NE USA_SEARAD_SE USA_SEARAD_SW USA_SEARAD_NW STORM_SPEED STORM_DIR
1906303N12058 1906 51 NI AS NOT_NAMED 1906-10-30 00:00:00 TS 12.3000 57.8000 main 360 349 _________O____ -1 12.3000 57.8000 TC 34 1 270
1906303N12058 1906 51 NI AS NOT_NAMED 1906-10-30 03:00:00 TS 12.3000 57.7400 main 349 338 _________PO___ -1 12.3000 57.7100 TC 36 12.3000 57.8000 2 2 270
1906303N12058 1906 51 NI AS NOT_NAMED 1906-10-30 06:00:00 TS 12.3000 57.6331 main 338 327 _________OP___ -1 12.3000 57.6000 TC 39 12.3000 57.6828 2 2 270
1906303N12058 1906 51 NI AS NOT_NAMED 1906-10-30 09:00:00 TS 12.3000 57.5025 main 327 316 _________PP___ -1 12.3000 57.4575 TC 42 12.3000 57.5625 2 3 270
1906303N12058 1906 51 NI AS NOT_NAMED 1906-10-30 12:00:00 TS 12.3000 57.3680 main 316 295 _________OP___ -1 12.3000 57.3000 TC 45 12.3000 57.4359 2 3 270
1906303N12058 1906 51 NI AS NOT_NAMED 1906-10-30 15:00:00 TS 12.3000 57.2250 main 295 284 _________PO___ -1 12.3000 57.1500 TC 45 12.3000 57.3000 3 3 270
1906303N12058 1906 51 NI AS NOT_NAMED 1906-10-30 18:00:00 TS 12.3000 57.0766 main 284 262 _________OP___ -1 12.3000 57.0000 TC 45 12.3000 57.1531 3 3 270
1906303N12058 1906 51 NI AS NOT_NAMED 1906-10-30 21:00:00 TS 12.3000 56.9250 main 262 252 _________PP___ -1 12.3000 56.8500 TC 45 12.3000 57.0000 3 3 270
1906303N12058 1906 51 NI AS NOT_NAMED 1906-10-31 00:00:00 TS 12.3000 56.7734 main 252 230 _________OP___ -1 12.3000 56.7000 TC 45 12.3000 56.8469 3 3 270
1906303N12058 1906 51 NI AS NOT_NAMED 1906-10-31 03:00:00 TS 12.3000 56.6213 main 230 219 _________PO___ -1 12.3000 56.5425 TC 45 12.3000 56.7000 3 3 270
1906303N12058 1906 51 NI AS NOT_NAMED 1906-10-31 06:00:00 TS 12.3000 56.4839 main 219 209 _________OP___ -1 12.3000 56.4000 TC 45 12.3000 56.5678 3 2 270
1906303N12058 1906 51 NI AS NOT_NAMED 1906-10-31 09:00:00 TS 12.3000 56.3713 main 209 198 _________PP___ -1 12.3000 56.3000 TC 45 12.3000 56.4425 3 2 270
1906303N12058 1906 51 NI AS NOT_NAMED 1906-10-31 12:00:00 TS 12.3000 56.2605 main 198 177 _________OP___ -1 12.3000 56.2000 TC 45 12.3000 56.3209 3 2 270
1906303N12058 1906 51 NI AS NOT_NAMED 1906-10-31 15:00:00 TS 12.3000 56.1250 main 177 166 _________PO___ -1 12.3000 56.0500 TC 45 12.3000 56.2000 3 3 270
1906303N12058 1906 51 NI AS NOT_NAMED 1906-10-31 18:00:00 TS 12.3000 55.9855 main 166 155 _________OP___ -1 12.3000 55.9000 TC 45 12.3000 56.0709 3 3 270
1906303N12058 1906 51 NI AS NOT_NAMED 1906-10-31 21:00:00 TS 12.3000 55.8675 main 155 145 _________PP___ -1 12.3000 55.7925 TC 45 12.3000 55.9425 3 2 270
1906303N12058 1906 51 NI AS NOT_NAMED 1906-11-01 00:00:00 TS 12.3000 55.7589 main 145 134 _________OP___ -1 12.3000 55.7000 TC 45 12.3000 55.8178 3 2 270
1906303N12058 1906 51 NI AS NOT_NAMED 1906-11-01 03:00:00 TS 12.3000 55.6500 main 134 124 _________PO___ -1 12.3000 55.6000 TC 45 12.3000 55.7000 3 2 270
1906303N12058 1906 51 NI AS NOT_NAMED 1906-11-01 06:00:00 TS 12.3000 55.5484 main 113 113 _________OP___ -1 12.3000 55.5000 TC 45 12.3000 55.5969 3 2 270
1906303N12058 1906 51 NI AS NOT_NAMED 1906-11-01 09:00:00 TS 12.3000 55.4500 main 113 103 _________PP___ -1 12.3000 55.4000 TC 45 12.3000 55.5000 3 2 270
1906303N12058 1906 51 NI AS NOT_NAMED 1906-11-01 12:00:00 TS 12.3000 55.3516 main 103 93 _________OP___ -1 12.3000 55.3000 TC 45 12.3000 55.4031 3 2 270
1906303N12058 1906 51 NI AS NOT_NAMED 1906-11-01 15:00:00 TS 12.3000 55.2537 main 93 83 _________PO___ -1 12.3000 55.2075 TC 45 12.3000 55.3000 3 2 270
1906303N12058 1906 51 NI AS NOT_NAMED 1906-11-01 18:00:00 TS 12.3000 55.1492 main 73 63 _________OP___ -1 12.3000 55.1000 TC 45 12.2999 55.1984 3 2 270
1906303N12058 1906 51 NI AS NOT_NAMED 1906-11-01 21:00:00 TS 12.2999 55.0300 main 63 54 _________PP___ -1 12.3000 54.9725 TC 45 12.2999 55.0875 3 3 270
1906303N12058 1906 51 NI AS NOT_NAMED 1906-11-02 00:00:00 TS 12.3000 54.8789 main 54 40 _________OP___ -1 12.3000 54.8000 TC 45 12.2999 54.9578 3 3 270
1906303N12058 1906 51 NI AS NOT_NAMED 1906-11-02 03:00:00 TS 12.3000 54.6787 main 40 31 _________PO___ -1 12.3000 54.5575 TC 45 12.3000 54.8000 3 4 270
1906303N12058 1906 51 NI AS NOT_NAMED 1906-11-02 06:00:00 TS 12.3000 54.4519 main 31 22 _________OP___ -1 12.3000 54.3000 TC 45 12.3000 54.6037 3 4 270
1906303N12058 1906 51 NI AS NOT_NAMED 1906-11-02 09:00:00 TS 12.3000 54.2400 main 15 0 _________PP___ -1 12.3000 54.1000 TC 45 12.3001 54.3800 3 4 270
1906303N12058 1906 51 NI AS NOT_NAMED 1906-11-02 12:00:00 TS 12.3000 54.0206 main 0 0 _________OP___ -1 12.3000 53.9000 TC 45 12.3000 54.1412 3 5 270
1906303N12058 1906 51 NI AS NOT_NAMED 1906-11-02 15:00:00 TS 12.3000 53.7750 main 0 0 _________PO___ -1 12.3000 53.6500 TC 45 12.3000 53.9000 3 5 270
1906303N12058 1906 51 NI AS NOT_NAMED 1906-11-02 18:00:00 TS 12.3000 53.5522 main 0 0 _________OP___ -1 12.3000 53.4000 TC 45 12.3000 53.6663 3 4 270
1906303N12058 1906 51 NI AS NOT_NAMED 1906-11-02 21:00:00 TS 12.3000 53.3390 main 22 22 _________PP___ -1 12.3000 53.1875 TC 45 12.3001 53.4400 3 4 270
1906303N12058 1906 51 NI AS NOT_NAMED 1906-11-03 00:00:00 TS 12.3001 53.1458 main 31 31 _________OP___ -1 12.3000 53.0000 TC 45 12.3001 53.2188 3 3 270
1906303N12058 1906 51 NI AS NOT_NAMED 1906-11-03 03:00:00 NR 12.3000 53.0000 main 39 __________O___ -1 TC 12.3000 53.0000 3 3 270

IBTrACS Databaseについて

本データベースは、米国NOAAが公開する1842年以降の世界の熱帯低気圧のベストトラックデータアーカイブInternational Best Track Archive for Climate Stewardship (IBTrACS)を、ウェブで閲覧しやすい形式に変換したものです。

最終更新日:2021-10-21